Time;durP1;ratioP1;P1;durP2;ratioP2;P2;SDS_P1;SDS_P2;PMS_P1;PMS_P2;Temp;Humidity;BMP_temperature;BMP_pressure;BME280_temperature;BME280_humidity;BME280_pressure;Samples;Min_cycle;Max_cycle;Signal;HPM_P1;HPM_P2
2023/01/09 00:01:58;;;;;;;21.80;15.83;;;;;;;0.89;100.00;98225.03;6275440;22;20203;-79
2023/01/09 00:04:25;;;;;;;22.60;16.30;;;;;;;0.94;100.00;98206.81;6276159;22;20573;-78
2023/01/09 00:06:54;;;;;;;22.67;16.80;;;;;;;0.93;100.00;98194.69;6276569;22;20202;-78
2023/01/09 00:09:22;;;;;;;24.07;17.20;;;;;;;0.94;100.00;98201.56;6276784;22;20200;-79
2023/01/09 00:11:49;;;;;;;23.93;17.37;;;;;;;0.94;100.00;98182.28;6276660;22;20210;-78
2023/01/09 00:14:17;;;;;;;24.50;17.17;;;;;;;0.98;100.00;98186.19;6274532;22;20712;-79
2023/01/09 00:16:44;;;;;;;27.27;17.67;;;;;;;1.11;100.00;98178.34;6249962;22;20212;-78
2023/01/09 00:19:11;;;;;;;24.37;17.00;;;;;;;1.09;100.00;98167.97;6277059;22;20207;-78
2023/01/09 00:21:37;;;;;;;25.73;17.10;;;;;;;1.05;100.00;98171.19;6276670;22;20210;-78
2023/01/09 00:24:05;;;;;;;25.33;17.63;;;;;;;1.10;100.00;98174.88;6275867;22;20307;-78
2023/01/09 00:26:32;;;;;;;24.73;17.47;;;;;;;1.10;100.00;98172.25;6276869;22;20282;-77
2023/01/09 00:29:01;;;;;;;24.37;17.33;;;;;;;1.07;100.00;98158.66;6249327;22;20282;-79
2023/01/09 00:31:27;;;;;;;24.37;17.10;;;;;;;1.11;100.00;98168.63;6249428;22;20208;-78
2023/01/09 00:33:55;;;;;;;27.27;18.43;;;;;;;1.21;100.00;98155.06;6276316;22;20208;-79
2023/01/09 00:36:22;;;;;;;24.83;17.70;;;;;;;1.18;100.00;98150.97;6275968;22;20196;-78
2023/01/09 00:38:49;;;;;;;27.37;18.40;;;;;;;1.32;100.00;98143.94;6276474;22;20208;-79
2023/01/09 00:41:22;;;;;;;26.87;17.90;;;;;;;1.33;100.00;98148.22;6276480;22;20211;-79
2023/01/09 00:43:53;;;;;;;28.87;17.73;;;;;;;1.33;100.00;98146.38;6249709;22;20228;-79
2023/01/09 00:46:25;;;;;;;28.03;18.23;;;;;;;1.20;100.00;98132.31;6276843;22;20208;-78
2023/01/09 00:48:52;;;;;;;28.13;18.13;;;;;;;1.25;100.00;98133.38;6276301;22;20287;-79
2023/01/09 00:51:19;;;;;;;25.20;17.40;;;;;;;1.30;100.00;98132.78;6276394;22;20203;-78
2023/01/09 00:53:46;;;;;;;27.33;17.63;;;;;;;1.28;100.00;98138.25;6276401;22;20204;-78
2023/01/09 00:56:15;;;;;;;24.83;16.90;;;;;;;1.23;100.00;98130.09;6275856;22;20236;-78
2023/01/09 00:58:42;;;;;;;25.03;17.53;;;;;;;1.13;100.00;98132.28;6249859;22;20718;-78
2023/01/09 01:01:09;;;;;;;24.50;17.60;;;;;;;1.14;100.00;98120.72;6276944;22;20683;-78
2023/01/09 01:03:35;;;;;;;25.07;17.77;;;;;;;1.23;100.00;98118.72;6276747;22;20212;-79
2023/01/09 01:08:48;;;;;;;25.40;18.00;;;;;;;1.17;100.00;98106.31;6276978;22;20238;-79
2023/01/09 01:11:14;;;;;;;25.80;17.33;;;;;;;1.27;100.00;98109.41;6276446;22;20283;-79
2023/01/09 01:13:41;;;;;;;26.47;16.90;;;;;;;1.21;100.00;98110.22;6276464;22;20204;-79
2023/01/09 01:16:11;;;;;;;27.40;18.50;;;;;;;1.23;100.00;98108.19;6275646;22;20203;-77
2023/01/09 01:18:37;;;;;;;30.47;18.67;;;;;;;1.16;100.00;98123.19;6249834;22;20539;-78
2023/01/09 01:21:06;;;;;;;29.87;18.70;;;;;;;1.11;100.00;98117.69;6276144;22;20208;-79
2023/01/09 01:23:33;;;;;;;25.40;17.53;;;;;;;1.15;100.00;98122.38;6276760;22;20526;-79
2023/01/09 01:26:05;;;;;;;27.30;17.93;;;;;;;1.12;100.00;98116.66;6276312;22;20204;-79
2023/01/09 01:28:32;;;;;;;27.67;18.33;;;;;;;1.15;100.00;98098.63;6275966;22;20522;-78
2023/01/09 01:30:58;;;;;;;24.90;16.97;;;;;;;1.11;100.00;98112.41;6276254;22;20208;-78
2023/01/09 01:33:25;;;;;;;25.73;17.97;;;;;;;1.06;100.00;98102.44;6249429;22;20275;-78
2023/01/09 01:35:59;;;;;;;28.50;18.13;;;;;;;1.15;100.00;98085.44;6276082;22;20212;-78
2023/01/09 01:38:26;;;;;;;29.53;19.33;;;;;;;1.18;100.00;98077.13;6276010;22;20709;-78
2023/01/09 01:40:53;;;;;;;31.03;18.83;;;;;;;1.24;100.00;98078.97;6249501;22;20708;-78
2023/01/09 01:43:20;;;;;;;29.67;18.80;;;;;;;1.15;100.00;98072.25;6276682;22;20683;-78
2023/01/09 01:45:46;;;;;;;28.40;18.70;;;;;;;1.17;100.00;98064.09;6249985;22;20247;-78
2023/01/09 01:48:20;;;;;;;27.93;19.07;;;;;;;1.13;100.00;98063.69;6257782;22;20645;-78
2023/01/09 01:50:50;;;;;;;36.60;19.47;;;;;;;1.11;100.00;98060.47;6253796;22;20208;-78
2023/01/09 01:53:23;;;;;;;29.73;19.07;;;;;;;1.12;100.00;98063.91;6249240;22;20200;-78
2023/01/09 01:56:04;;;;;;;31.07;18.57;;;;;;;1.15;100.00;98066.16;6247233;22;20596;-79
2023/01/09 01:58:33;;;;;;;30.40;19.30;;;;;;;1.22;100.00;98051.13;6210499;22;20202;-78
2023/01/09 02:01:01;;;;;;;27.87;18.67;;;;;;;1.21;100.00;98041.63;6249470;22;20314;-78
2023/01/09 02:03:28;;;;;;;32.93;19.70;;;;;;;1.45;100.00;98046.34;6243309;22;20267;-78
2023/01/09 02:05:54;;;;;;;30.63;19.67;;;;;;;1.36;100.00;98023.78;6268709;22;20211;-79
2023/01/09 02:08:21;;;;;;;28.87;18.80;;;;;;;1.37;100.00;98016.69;6274901;22;20235;-78
2023/01/09 02:10:48;;;;;;;28.47;18.77;;;;;;;1.31;100.00;98010.38;6249545;22;20637;-78
2023/01/09 02:13:15;;;;;;;30.97;18.90;;;;;;;1.42;100.00;98007.16;6276372;22;20204;-79
2023/01/09 02:15:45;;;;;;;30.77;19.63;;;;;;;1.52;100.00;98018.13;6275924;22;20211;-79
2023/01/09 02:18:50;;;;;;;30.80;20.17;;;;;;;1.43;100.00;97998.22;6275871;22;20207;-78
2023/01/09 02:21:37;;;;;;;30.90;19.57;;;;;;;1.50;100.00;98009.59;6198192;22;20227;-79
2023/01/09 02:24:10;;;;;;;28.10;18.83;;;;;;;1.47;100.00;98009.19;6249280;22;20207;-78
2023/01/09 02:26:46;;;;;;;27.37;18.20;;;;;;;1.44;100.00;97999.88;6249604;22;20543;-78
2023/01/09 02:30:04;;;;;;;27.17;17.97;;;;;;;1.52;100.00;97993.56;6249439;22;20286;-78
2023/01/09 02:32:53;;;;;;;28.67;18.83;;;;;;;1.49;100.00;97980.78;6123352;23;20203;-78
2023/01/09 02:35:34;;;;;;;24.80;18.10;;;;;;;1.40;100.00;97972.22;6270095;22;20509;-78
2023/01/09 02:38:40;;;;;;;26.40;18.17;;;;;;;1.39;100.00;97975.91;6248580;22;20212;-77
2023/01/09 02:41:25;;;;;;;25.03;17.47;;;;;;;1.45;100.00;97975.06;6276320;22;20227;-79
2023/01/09 02:44:20;;;;;;;26.80;17.77;;;;;;;1.54;100.00;97979.13;6276122;22;20208;-79
2023/01/09 02:46:47;;;;;;;24.23;17.07;;;;;;;1.60;100.00;97988.91;6275832;22;20219;-78
2023/01/09 02:49:15;;;;;;;22.93;17.23;;;;;;;1.61;100.00;97974.69;6276040;22;20206;-78
2023/01/09 02:51:53;;;;;;;24.77;17.47;;;;;;;1.63;100.00;97974.50;6249342;22;20212;-79
2023/01/09 02:54:55;;;;;;;24.27;17.33;;;;;;;1.65;100.00;97967.16;6249092;22;20191;-79
2023/01/09 02:57:41;;;;;;;24.60;17.80;;;;;;;1.67;100.00;97971.25;6276019;22;20261;-78
2023/01/09 03:00:14;;;;;;;23.83;16.90;;;;;;;1.71;100.00;97958.44;6248584;22;20648;-78
2023/01/09 03:02:48;;;;;;;24.33;17.60;;;;;;;1.77;100.00;97957.66;6275721;22;20204;-78
2023/01/09 03:05:18;;;;;;;22.63;17.43;;;;;;;1.78;100.00;97953.97;6248837;22;20545;-79
2023/01/09 03:07:52;;;;;;;24.93;18.27;;;;;;;1.76;100.00;97951.53;6222429;23;20688;-79
2023/01/09 03:10:30;;;;;;;24.93;17.87;;;;;;;1.79;100.00;97950.31;6095336;22;20211;-79
2023/01/09 03:13:00;;;;;;;23.83;18.30;;;;;;;1.89;100.00;97952.53;6096208;23;20280;-79
2023/01/09 03:15:33;;;;;;;23.70;17.73;;;;;;;1.91;100.00;97946.06;6222535;23;20211;-79
2023/01/09 03:18:00;;;;;;;24.63;17.63;;;;;;;1.91;100.00;97942.59;6122423;22;20223;-79
2023/01/09 03:20:28;;;;;;;23.00;17.73;;;;;;;1.97;100.00;97950.50;6123060;22;20226;-78
2023/01/09 03:22:57;;;;;;;23.77;17.50;;;;;;;2.03;100.00;97941.75;6123143;22;20211;-79
2023/01/09 03:25:25;;;;;;;22.67;17.40;;;;;;;2.10;100.00;97947.03;6095664;23;20254;-80
2023/01/09 03:28:01;;;;;;;21.30;16.67;;;;;;;2.26;100.00;97949.22;6097460;23;20678;-79
2023/01/09 03:30:29;;;;;;;22.23;16.03;;;;;;;2.26;100.00;97927.28;6122617;22;20203;-79
2023/01/09 03:32:56;;;;;;;22.57;16.70;;;;;;;2.33;100.00;97928.06;6199318;23;20207;-79
2023/01/09 03:35:24;;;;;;;20.93;15.97;;;;;;;2.34;100.00;97932.31;6123465;22;20212;-79
2023/01/09 03:37:50;;;;;;;19.23;15.10;;;;;;;2.35;100.00;97926.03;6097563;23;20207;-79
2023/01/09 03:40:18;;;;;;;21.00;15.93;;;;;;;2.36;100.00;97912.59;6123373;22;20679;-79
2023/01/09 03:42:45;;;;;;;20.07;16.20;;;;;;;2.46;100.00;97914.81;6072938;23;20599;-80
2023/01/09 03:45:13;;;;;;;15.97;12.47;;;;;;;2.57;100.00;97914.13;6123428;23;20183;-80
2023/01/09 03:47:40;;;;;;;10.17;8.53;;;;;;;2.89;100.00;97912.38;6122793;22;20204;-79
2023/01/09 03:50:07;;;;;;;8.27;6.13;;;;;;;3.42;100.00;97916.28;6122508;22;20203;-78
2023/01/09 03:52:34;;;;;;;5.73;5.00;;;;;;;3.94;100.00;97912.38;6122836;22;20200;-79
2023/01/09 03:55:01;;;;;;;4.90;4.10;;;;;;;4.51;100.00;97909.50;6120904;23;20211;-78
2023/01/09 03:57:28;;;;;;;5.70;3.60;;;;;;;5.03;100.00;97918.63;6123057;22;20223;-79
2023/01/09 03:59:54;;;;;;;4.33;3.77;;;;;;;5.32;100.00;97907.97;6224082;23;20219;-80
2023/01/09 04:02:21;;;;;;;5.00;4.13;;;;;;;5.84;100.00;97908.16;6122671;22;20211;-78
2023/01/09 04:04:48;;;;;;;5.10;4.00;;;;;;;5.93;100.00;97904.13;6122871;22;20207;-79
2023/01/09 04:07:14;;;;;;;4.70;3.60;;;;;;;6.22;100.00;97914.88;6192869;22;20196;-79
2023/01/09 04:09:41;;;;;;;3.53;3.23;;;;;;;6.46;100.00;97909.28;6277884;22;20210;-79
2023/01/09 04:12:07;;;;;;;3.37;2.87;;;;;;;6.71;100.00;97902.88;6275781;22;20223;-78
2023/01/09 04:14:34;;;;;;;3.10;2.83;;;;;;;6.84;100.00;97898.06;6278417;22;20562;-79
2023/01/09 04:17:01;;;;;;;2.90;2.60;;;;;;;7.15;100.00;97895.97;6225290;22;20200;-79
2023/01/09 04:19:28;;;;;;;4.53;2.77;;;;;;;7.09;100.00;97892.41;6277475;22;20204;-79
2023/01/09 04:21:55;;;;;;;3.30;2.90;;;;;;;7.30;100.00;97882.91;6277381;22;20515;-79
2023/01/09 04:24:21;;;;;;;3.13;2.80;;;;;;;7.43;100.00;97872.75;6277058;22;20199;-79
2023/01/09 04:26:48;;;;;;;3.80;2.50;;;;;;;7.58;100.00;97868.72;6277457;22;20205;-79
2023/01/09 04:29:14;;;;;;;2.77;2.50;;;;;;;7.64;100.00;97860.56;6277524;22;20683;-79
2023/01/09 04:31:41;;;;;;;6.43;2.47;;;;;;;7.81;100.00;97845.34;6276200;22;20275;-79
2023/01/09 04:34:08;;;;;;;2.40;2.20;;;;;;;7.87;100.00;97844.38;6276887;22;20231;-78
2023/01/09 04:36:35;;;;;;;2.30;2.10;;;;;;;8.01;100.00;97844.03;6277625;22;20215;-79
2023/01/09 04:39:02;;;;;;;2.50;2.30;;;;;;;8.08;100.00;97850.78;6251223;22;20279;-79
2023/01/09 04:44:19;;;;;;;2.30;2.10;;;;;;;7.97;100.00;97825.84;6277284;22;20231;-79
2023/01/09 04:46:46;;;;;;;2.87;2.40;;;;;;;8.11;100.00;97823.63;6251457;22;20212;-79
2023/01/09 04:49:13;;;;;;;2.83;2.30;;;;;;;8.05;100.00;97818.47;6277401;22;20645;-79
2023/01/09 04:51:40;;;;;;;2.43;2.00;;;;;;;8.08;100.00;97816.13;6225690;22;20331;-79
2023/01/09 04:54:06;;;;;;;2.10;1.90;;;;;;;8.07;100.00;97827.81;6277339;22;20653;-79
2023/01/09 04:56:33;;;;;;;3.40;2.30;;;;;;;8.11;100.00;97823.63;6277124;22;20203;-79
2023/01/09 04:59:00;;;;;;;2.10;1.90;;;;;;;8.35;100.00;97832.25;6251198;22;20206;-79
2023/01/09 05:01:27;;;;;;;2.20;2.00;;;;;;;8.30;100.00;97824.19;6250985;22;20208;-79
2023/01/09 05:03:53;;;;;;;1.90;1.80;;;;;;;8.32;100.00;97816.72;6277777;22;20270;-79
2023/01/09 05:06:20;;;;;;;2.40;2.20;;;;;;;8.35;100.00;97819.69;6276990;22;20299;-78
2023/01/09 05:08:47;;;;;;;2.60;1.97;;;;;;;8.42;100.00;97816.84;6278501;22;20200;-79
2023/01/09 05:11:13;;;;;;;3.23;2.20;;;;;;;8.56;100.00;97817.25;6277897;22;20200;-79
2023/01/09 05:13:40;;;;;;;8.60;4.97;;;;;;;8.42;100.00;97808.03;6251251;22;20204;-80
2023/01/09 05:16:07;;;;;;;4.40;4.00;;;;;;;8.49;100.00;97811.31;6277428;22;20215;-79
2023/01/09 05:18:34;;;;;;;2.23;2.00;;;;;;;8.56;100.00;97806.56;6277939;22;20204;-79
2023/01/09 05:21:01;;;;;;;1.80;1.70;;;;;;;8.52;100.00;97814.28;6251452;22;20208;-79
2023/01/09 05:23:27;;;;;;;2.93;1.83;;;;;;;8.69;100.00;97815.00;6276428;22;20204;-79
2023/01/09 05:25:54;;;;;;;2.27;1.80;;;;;;;8.65;100.00;97808.56;6277998;22;20724;-79
2023/01/09 05:28:20;;;;;;;2.10;1.80;;;;;;;8.78;100.00;97802.81;6277655;22;20207;-79
2023/01/09 05:30:47;;;;;;;2.60;1.90;;;;;;;8.79;100.00;97804.44;6251220;22;20206;-79
2023/01/09 05:33:14;;;;;;;2.90;1.90;;;;;;;8.75;100.00;97794.50;6251412;22;20671;-79
2023/01/09 05:35:40;;;;;;;2.20;2.00;;;;;;;8.76;100.00;97798.78;6240059;22;20283;-79
2023/01/09 05:38:07;;;;;;;3.83;3.03;;;;;;;8.82;100.00;97798.56;6273157;22;20542;-79
2023/01/09 05:40:34;;;;;;;5.07;3.90;;;;;;;8.81;100.00;97794.31;6278091;22;20269;-79
2023/01/09 05:43:06;;;;;;;6.33;3.90;;;;;;;8.77;100.00;97795.84;6252795;22;20184;-79
2023/01/09 05:45:33;;;;;;;7.83;5.03;;;;;;;8.82;100.00;97795.09;6217353;23;20211;-79
2023/01/09 05:48:00;;;;;;;5.30;3.70;;;;;;;8.82;100.00;97800.44;6272458;22;20302;-79
2023/01/09 05:50:26;;;;;;;2.40;2.13;;;;;;;8.78;100.00;97805.47;6257374;22;20684;-78
2023/01/09 05:52:53;;;;;;;2.63;2.20;;;;;;;8.94;100.00;97805.63;6257033;22;20724;-79
2023/01/09 05:55:19;;;;;;;2.67;2.00;;;;;;;8.99;100.00;97792.31;6278663;22;20720;-79
2023/01/09 05:57:46;;;;;;;2.47;1.80;;;;;;;8.90;100.00;97793.84;6276955;22;20243;-79
2023/01/09 06:00:13;;;;;;;2.10;1.87;;;;;;;8.95;100.00;97794.69;6276835;22;20198;-78
2023/01/09 06:02:40;;;;;;;1.80;1.70;;;;;;;8.98;100.00;97799.53;6277862;22;20212;-79
2023/01/09 06:05:08;;;;;;;2.37;1.90;;;;;;;9.02;100.00;97792.63;6277761;22;20203;-79
2023/01/09 06:07:38;;;;;;;2.83;2.20;;;;;;;8.97;100.00;97795.25;6277429;22;20679;-79
2023/01/09 06:10:06;;;;;;;3.03;2.33;;;;;;;9.02;100.00;97797.97;6277135;22;20617;-78
2023/01/09 06:12:33;;;;;;;2.70;2.37;;;;;;;9.02;100.00;97797.97;6250961;22;20206;-80
2023/01/09 06:14:59;;;;;;;2.70;2.10;;;;;;;8.99;100.00;97785.13;6275408;22;20210;-78
2023/01/09 06:17:26;;;;;;;3.27;2.20;;;;;;;8.98;100.00;97796.06;6277957;22;20200;-79
2023/01/09 06:19:53;;;;;;;2.23;2.00;;;;;;;8.99;100.00;97790.47;6277040;22;20210;-79
2023/01/09 06:22:19;;;;;;;2.30;2.00;;;;;;;9.07;100.00;97784.66;6276898;22;20282;-80
2023/01/09 06:24:46;;;;;;;2.50;2.00;;;;;;;9.10;100.00;97789.47;6277247;22;20238;-79
2023/01/09 06:27:13;;;;;;;2.13;1.80;;;;;;;9.05;100.00;97788.66;6246852;22;20201;-79
2023/01/09 06:29:39;;;;;;;1.80;1.60;;;;;;;9.06;100.00;97783.03;6266833;22;20221;-79
2023/01/09 06:32:06;;;;;;;1.93;1.60;;;;;;;9.13;100.00;97797.00;6276859;22;20211;-78
2023/01/09 06:34:32;;;;;;;2.73;1.83;;;;;;;9.05;100.00;97789.44;6250261;22;20204;-79
2023/01/09 06:36:59;;;;;;;3.33;2.00;;;;;;;9.11;100.00;97796.44;6276961;22;20209;-79
2023/01/09 06:39:26;;;;;;;1.90;1.70;;;;;;;9.09;100.00;97787.88;6276667;22;20196;-79
2023/01/09 06:41:52;;;;;;;2.57;1.87;;;;;;;9.11;100.00;97790.28;6277017;22;20204;-79
2023/01/09 06:44:19;;;;;;;2.17;1.77;;;;;;;8.99;100.00;97795.00;6277093;22;20204;-80
2023/01/09 06:46:45;;;;;;;1.80;1.70;;;;;;;9.17;100.00;97791.94;6250042;22;20258;-79
2023/01/09 06:49:12;;;;;;;2.57;1.90;;;;;;;9.17;100.00;97790.09;6274758;22;20245;-80
2023/01/09 06:51:38;;;;;;;2.67;1.63;;;;;;;9.11;100.00;97793.75;6276636;22;20557;-79
2023/01/09 06:54:05;;;;;;;2.43;1.67;;;;;;;9.15;100.00;97788.72;6279090;22;20275;-78
2023/01/09 06:56:32;;;;;;;2.97;1.60;;;;;;;9.16;100.00;97783.13;6278445;22;20675;-79
2023/01/09 06:59:00;;;;;;;2.43;1.73;;;;;;;9.27;100.00;97794.69;6278703;22;20204;-79
2023/01/09 07:01:27;;;;;;;2.47;1.90;;;;;;;9.15;100.00;97805.56;6278883;22;20551;-79
2023/01/09 07:03:54;;;;;;;1.93;1.63;;;;;;;9.12;100.00;97811.41;6251840;22;20215;-79
2023/01/09 07:06:22;;;;;;;2.27;1.80;;;;;;;9.21;100.00;97814.41;6284452;22;22321;-80
2023/01/09 07:08:51;;;;;;;2.93;2.30;;;;;;;9.21;100.00;97819.75;6266527;22;20649;-80
2023/01/09 07:11:17;;;;;;;2.27;1.80;;;;;;;9.22;100.00;97816.03;6277513;22;20275;-79
2023/01/09 07:13:44;;;;;;;2.10;1.90;;;;;;;9.42;100.00;97826.91;6278722;22;20262;-79
2023/01/09 07:16:11;;;;;;;2.10;1.80;;;;;;;9.42;100.00;97828.78;6278207;22;20231;-79
2023/01/09 07:18:38;;;;;;;2.60;2.00;;;;;;;9.45;100.00;97823.72;6278138;22;20530;-79
2023/01/09 07:21:05;;;;;;;3.03;2.50;;;;;;;9.39;100.00;97831.94;6251427;22;20548;-80
2023/01/09 07:23:32;;;;;;;2.60;2.27;;;;;;;9.30;100.00;97847.63;6251164;22;20673;-79
2023/01/09 07:25:59;;;;;;;2.70;1.90;;;;;;;9.29;100.00;97843.34;6251845;22;20213;-80
2023/01/09 07:28:26;;;;;;;2.87;2.20;;;;;;;9.29;100.00;97857.50;6251796;22;20279;-79
2023/01/09 07:30:52;;;;;;;2.23;2.03;;;;;;;9.35;100.00;97863.72;6278412;22;20212;-79
2023/01/09 07:33:19;;;;;;;3.10;2.50;;;;;;;9.40;100.00;97866.44;6278496;22;20293;-79
2023/01/09 07:35:46;;;;;;;2.53;2.20;;;;;;;9.40;100.00;97865.63;6276854;22;20211;-79
2023/01/09 07:38:12;;;;;;;2.33;2.13;;;;;;;9.35;100.00;97866.38;6277950;22;20227;-78
2023/01/09 07:40:39;;;;;;;2.60;2.40;;;;;;;9.41;100.00;97873.41;6276702;22;20275;-79
2023/01/09 07:43:05;;;;;;;3.23;2.70;;;;;;;9.43;100.00;97875.78;6278476;22;20200;-79
2023/01/09 07:45:32;;;;;;;2.90;1.90;;;;;;;9.38;100.00;97881.91;6279435;22;20269;-79
2023/01/09 07:47:59;;;;;;;2.77;2.53;;;;;;;9.48;100.00;97882.00;6278524;22;20204;-79
2023/01/09 07:50:25;;;;;;;2.53;2.03;;;;;;;9.56;100.00;97878.06;6278312;22;20665;-78
2023/01/09 07:52:52;;;;;;;2.33;1.80;;;;;;;9.67;100.00;97880.56;6278501;22;20208;-79
2023/01/09 07:55:18;;;;;;;2.37;2.17;;;;;;;9.60;100.00;97879.16;6276594;22;20274;-77
2023/01/09 07:57:49;;;;;;;4.83;3.30;;;;;;;9.60;100.00;97890.66;6276000;22;20200;-78
2023/01/09 08:00:17;;;;;;;3.30;2.43;;;;;;;9.63;100.00;97887.47;6275455;22;20204;-77
2023/01/09 08:02:44;;;;;;;7.57;3.07;;;;;;;9.66;100.00;97891.50;6249278;22;20231;-77
2023/01/09 08:05:13;;;;;;;6.60;3.67;;;;;;;9.67;100.00;97899.28;6275788;22;20254;-77
2023/01/09 08:07:40;;;;;;;10.23;7.00;;;;;;;9.69;100.00;97907.84;6275344;22;20208;-78
2023/01/09 08:10:09;;;;;;;7.83;5.10;;;;;;;9.63;100.00;97924.09;6275345;22;20690;-78
2023/01/09 08:12:35;;;;;;;13.40;9.43;;;;;;;9.50;100.00;97919.19;6275021;22;20204;-78
2023/01/09 08:15:02;;;;;;;7.80;6.13;;;;;;;9.47;100.00;97922.38;6275709;22;20553;-77
2023/01/09 08:17:29;;;;;;;3.30;3.00;;;;;;;9.48;100.00;97938.13;6275587;22;20211;-77
2023/01/09 08:19:56;;;;;;;2.03;1.70;;;;;;;9.45;100.00;97944.00;6275372;22;20234;-78
2023/01/09 08:22:22;;;;;;;2.13;1.70;;;;;;;9.47;100.00;97967.81;6274849;22;20208;-77
2023/01/09 08:24:49;;;;;;;1.93;1.67;;;;;;;9.58;100.00;97993.56;6275570;22;20208;-77
2023/01/09 08:27:15;;;;;;;2.60;1.60;;;;;;;9.67;100.00;98008.09;6274640;22;20208;-77
2023/01/09 08:29:42;;;;;;;2.70;2.17;;;;;;;9.68;100.00;98015.88;6276221;22;20204;-79
2023/01/09 08:32:08;;;;;;;2.30;2.10;;;;;;;9.69;100.00;98027.38;6274894;22;20208;-78
2023/01/09 08:34:35;;;;;;;2.73;2.23;;;;;;;9.79;100.00;98022.13;6275808;22;20210;-78
2023/01/09 08:37:02;;;;;;;3.90;2.30;;;;;;;9.63;100.00;98015.00;6275721;22;20644;-78
2023/01/09 08:39:28;;;;;;;2.20;2.00;;;;;;;9.52;100.00;98007.94;6276057;22;20284;-76
2023/01/09 08:47:27;;;;;;;2.20;2.00;;;;;;;9.54;100.00;98025.34;6263498;22;20211;-81
2023/01/09 08:49:54;;;;;;;2.43;2.10;;;;;;;9.51;100.00;98012.50;6292564;22;20208;-81
2023/01/09 08:52:21;;;;;;;3.40;3.10;;;;;;;9.52;100.00;98019.44;6283482;22;20250;-80
2023/01/09 08:54:47;;;;;;;10.93;8.80;;;;;;;9.59;100.00;98019.25;6284882;22;20269;-81
2023/01/09 08:57:14;;;;;;;5.70;4.33;;;;;;;9.62;100.00;98014.19;6230142;22;20719;-81
2023/01/09 08:59:40;;;;;;;26.53;19.27;;;;;;;9.58;100.00;98029.13;6278263;22;20180;-79
2023/01/09 09:02:08;;;;;;;16.87;11.07;;;;;;;9.65;100.00;98034.31;6276820;22;20685;-81
2023/01/09 09:04:34;;;;;;;9.10;6.67;;;;;;;9.63;100.00;98031.88;6250117;22;20667;-80
2023/01/09 09:07:01;;;;;;;2.97;2.40;;;;;;;9.52;100.00;98043.50;6281195;22;20204;-80
2023/01/09 09:09:28;;;;;;;5.87;5.27;;;;;;;9.65;100.00;98045.81;6289389;22;20248;-81
2023/01/09 09:11:54;;;;;;;4.07;3.00;;;;;;;9.64;100.00;98046.03;6240221;22;20645;-81
2023/01/09 09:17:07;;;;;;;2.60;2.40;;;;;;;9.71;100.00;98050.13;6283620;22;20246;-80
2023/01/09 09:19:33;;;;;;;2.43;1.77;;;;;;;9.65;100.00;98047.66;6266439;22;20210;-80
2023/01/09 09:22:00;;;;;;;1.70;1.60;;;;;;;9.73;100.00;98050.69;6266707;22;20244;-82
2023/01/09 09:24:30;;;;;;;1.77;1.43;;;;;;;9.81;100.00;98045.94;6264394;22;20207;-81
2023/01/09 09:29:55;;;;;;;1.63;1.53;;;;;;;9.81;100.00;98052.09;6296017;22;20195;-83
2023/01/09 09:32:22;;;;;;;1.40;1.30;;;;;;;9.86;100.00;98064.72;6252113;22;20220;-81
2023/01/09 09:34:49;;;;;;;2.03;1.40;;;;;;;9.80;100.00;98068.41;6280966;22;20219;-79
2023/01/09 09:37:15;;;;;;;1.60;1.50;;;;;;;9.73;100.00;98076.63;6277012;22;20208;-80
2023/01/09 09:39:42;;;;;;;1.60;1.50;;;;;;;9.77;100.00;98082.28;6252191;22;20206;-81
2023/01/09 09:45:33;;;;;;;1.67;1.43;;;;;;;9.79;100.00;98098.91;6278034;22;20204;-81
2023/01/09 09:48:15;;;;;;;1.40;1.30;;;;;;;9.83;100.00;98108.84;6287582;22;20218;-82
2023/01/09 09:50:58;;;;;;;1.53;1.27;;;;;;;9.79;100.00;98094.34;6288760;22;20246;-80
2023/01/09 09:53:39;;;;;;;2.23;1.40;;;;;;;9.77;100.00;98106.34;6289046;22;20226;-81
2023/01/09 09:56:10;;;;;;;1.03;0.93;;;;;;;9.71;100.00;98103.63;6257549;22;20208;-80
2023/01/09 09:58:39;;;;;;;1.10;1.00;;;;;;;9.48;100.00;98109.22;6233638;22;20212;-80
2023/01/09 10:01:07;;;;;;;1.87;1.10;;;;;;;9.46;100.00;98099.84;6232722;22;20589;-80
2023/01/09 10:03:54;;;;;;;1.20;0.97;;;;;;;9.28;100.00;98112.44;6283009;22;20208;-80
2023/01/09 10:06:35;;;;;;;1.10;1.00;;;;;;;9.14;100.00;98110.41;6256661;22;20208;-79
2023/01/09 10:09:07;;;;;;;1.23;1.00;;;;;;;9.12;100.00;98107.16;6284047;22;20215;-80
2023/01/09 10:11:41;;;;;;;1.07;0.70;;;;;;;9.07;100.00;98112.44;6257621;22;20258;-80
2023/01/09 10:14:09;;;;;;;1.10;0.80;;;;;;;9.06;100.00;98108.13;6281804;22;20206;-80
2023/01/09 10:16:58;;;;;;;0.77;0.77;;;;;;;8.90;100.00;98114.34;6231971;22;20230;-80
2023/01/09 10:19:54;;;;;;;0.73;0.70;;;;;;;8.88;100.00;98121.78;6256926;22;20212;-80
2023/01/09 10:22:30;;;;;;;0.80;0.80;;;;;;;8.85;100.00;98123.09;6280687;22;20660;-80
2023/01/09 10:25:07;;;;;;;1.53;0.60;;;;;;;8.79;100.00;98127.53;6280459;22;20211;-80
2023/01/09 10:27:47;;;;;;;0.60;0.60;;;;;;;8.57;100.00;98129.34;6255122;22;20205;-81
2023/01/09 10:30:37;;;;;;;2.20;0.80;;;;;;;8.58;100.00;98133.63;6287929;22;20204;-80
2023/01/09 10:33:16;;;;;;;0.90;0.70;;;;;;;8.52;100.00;98131.91;6264529;22;20204;-80
2023/01/09 10:35:52;;;;;;;1.93;0.73;;;;;;;8.36;100.00;98144.19;6264659;22;20724;-81
2023/01/09 10:38:22;;;;;;;0.53;0.50;;;;;;;8.16;100.00;98129.69;6266150;22;20259;-80
2023/01/09 10:41:02;;;;;;;0.60;0.60;;;;;;;8.05;100.00;98142.00;6240444;22;20264;-80
2023/01/09 10:43:54;;;;;;;0.60;0.43;;;;;;;7.97;100.00;98137.06;6239306;22;20215;-80
2023/01/09 10:46:27;;;;;;;1.20;0.70;;;;;;;7.84;100.00;98134.66;6289728;22;20207;-81
2023/01/09 10:48:58;;;;;;;1.43;0.50;;;;;;;7.91;100.00;98133.50;6257197;22;20204;-80
2023/01/09 10:51:43;;;;;;;0.93;0.50;;;;;;;7.89;100.00;98118.75;6236422;22;20522;-80
2023/01/09 10:54:22;;;;;;;0.93;0.60;;;;;;;8.08;100.00;98132.72;6260591;22;20211;-80
2023/01/09 10:57:11;;;;;;;0.70;0.50;;;;;;;8.16;100.00;98125.16;6237534;22;20218;-81
2023/01/09 10:59:39;;;;;;;0.73;0.40;;;;;;;8.16;100.00;98127.81;6289408;22;20254;-80
2023/01/09 11:02:25;;;;;;;0.60;0.50;;;;;;;8.30;100.00;98109.69;6286568;22;20226;-80
2023/01/09 11:04:52;;;;;;;0.60;0.30;;;;;;;8.45;100.00;98122.44;6288049;22;20215;-80
2023/01/09 11:07:34;;;;;;;0.27;0.27;;;;;;;8.63;100.00;98111.53;6287827;22;20234;-80
2023/01/09 11:10:04;;;;;;;0.30;0.30;;;;;;;8.81;100.00;98119.28;6259242;22;20526;-79
2023/01/09 11:12:33;;;;;;;0.20;0.20;;;;;;;8.97;100.00;98115.78;6259433;22;20212;-80
2023/01/09 11:15:15;;;;;;;0.20;0.20;;;;;;;9.14;100.00;98113.88;6259043;22;20262;-80
2023/01/09 11:17:42;;;;;;;0.63;0.30;;;;;;;9.25;100.00;98109.47;6286270;22;20645;-80
2023/01/09 11:20:24;;;;;;;0.33;0.30;;;;;;;9.48;100.00;98101.22;6284427;22;20200;-80
2023/01/09 11:22:56;;;;;;;0.10;0.10;;;;;;;9.55;100.00;98099.16;6231785;22;20207;-80
2023/01/09 11:25:24;;;;;;;0.20;0.20;;;;;;;9.66;100.00;98098.19;6258159;22;20200;-80
2023/01/09 11:28:09;;;;;;;0.30;0.10;;;;;;;9.86;100.00;98110.19;6285114;22;20252;-79
2023/01/09 11:30:50;;;;;;;0.27;0.20;;;;;;;9.70;100.00;98117.25;6257768;22;20262;-80
2023/01/09 11:33:25;;;;;;;0.20;0.20;;;;;;;9.73;100.00;98122.91;6244758;22;20547;-81
2023/01/09 11:36:10;;;;;;;0.20;0.20;;;;;;;9.69;100.00;98121.78;6284934;22;20204;-80
2023/01/09 11:38:59;;;;;;;0.20;0.20;;;;;;;9.49;100.00;98113.53;6285202;22;20210;-80
2023/01/09 11:41:36;;;;;;;0.47;0.20;;;;;;;9.37;100.00;98118.19;6259152;22;20208;-80
2023/01/09 11:44:03;;;;;;;0.27;0.20;;;;;;;9.27;100.00;98120.72;6233615;22;20656;-80
2023/01/09 11:46:40;;;;;;;1.00;0.20;;;;;;;9.27;100.00;98105.50;6233142;22;20204;-80
2023/01/09 11:49:21;;;;;;;0.10;0.10;;;;;;;9.32;100.00;98094.06;6259361;22;20207;-80
2023/01/09 11:52:25;;;;;;;0.30;0.20;;;;;;;9.14;100.00;98084.50;6285423;22;20215;-80
2023/01/09 11:54:58;;;;;;;0.10;0.10;;;;;;;9.10;100.00;98079.88;6138368;23;20211;-80
2023/01/09 11:57:26;;;;;;;0.53;0.20;;;;;;;9.13;100.00;98066.84;6138335;22;20235;-80
2023/01/09 11:59:58;;;;;;;0.10;0.10;;;;;;;9.15;100.00;98067.38;6286114;22;20204;-80
2023/01/09 12:02:47;;;;;;;0.20;0.20;;;;;;;9.31;100.00;98070.25;6258200;22;20200;-80
2023/01/09 12:05:29;;;;;;;0.20;0.20;;;;;;;9.28;100.00;98066.22;6256965;22;20208;-80